Terminal Aerodrome Forecast
Issued by NWS Grand Forks, ND

Home | Current Version | Previous Version | Graphics & Text | Print | Product List | Glossary On
Versions: 1 2 3 4 5 6 7 8 9 10 11 12 13 14
000
FTUS43 KFGF 020634 AAA
TAFGFK
TAF AMD
KGFK 020634Z 0207/0306 36013KT P6SM BKN100
     FM020800 34012KT P6SM VCSH BKN080
     FM021100 34012KT P6SM BKN080
     FM021600 34014G22KT P6SM FEW035 SCT120
     FM030100 31006KT P6SM SKC=

USA.gov is the U.S. government's official web portal to all federal, state and local government web resources and services.